sensor_id;sensor_type;location;lat;lon;timestamp;pressure;altitude;pressure_sealevel;temperature;humidity
64200;BME280;50516;52.272;5.136;2022-12-17T00:00:42;102263.22;;;1.33;84.81
64200;BME280;50516;52.272;5.136;2022-12-17T00:03:26;102262.72;;;1.30;85.35
64200;BME280;50516;52.272;5.136;2022-12-17T00:06:10;102257.19;;;1.15;85.08
64200;BME280;50516;52.272;5.136;2022-12-17T00:08:54;102261.09;;;1.12;85.49
64200;BME280;50516;52.272;5.136;2022-12-17T00:11:39;102270.72;;;1.23;85.52
64200;BME280;50516;52.272;5.136;2022-12-17T00:14:23;102270.53;;;1.24;84.61
64200;BME280;50516;52.272;5.136;2022-12-17T00:17:07;102259.16;;;1.29;85.05
64200;BME280;50516;52.272;5.136;2022-12-17T00:19:50;102260.31;;;1.35;84.20
64200;BME280;50516;52.272;5.136;2022-12-17T00:22:34;102254.44;;;1.31;84.32
64200;BME280;50516;52.272;5.136;2022-12-17T00:25:18;102264.41;;;1.31;84.80
64200;BME280;50516;52.272;5.136;2022-12-17T00:28:02;102265.09;;;1.33;84.88
64200;BME280;50516;52.272;5.136;2022-12-17T00:30:50;102276.56;;;1.35;84.66
64200;BME280;50516;52.272;5.136;2022-12-17T00:33:35;102270.47;;;1.41;84.96
64200;BME280;50516;52.272;5.136;2022-12-17T00:36:19;102274.00;;;1.41;84.59
64200;BME280;50516;52.272;5.136;2022-12-17T00:39:02;102269.31;;;1.27;84.43
64200;BME280;50516;52.272;5.136;2022-12-17T00:41:46;102272.69;;;1.37;84.64
64200;BME280;50516;52.272;5.136;2022-12-17T00:44:30;102270.50;;;1.33;84.81
64200;BME280;50516;52.272;5.136;2022-12-17T00:47:14;102273.25;;;1.24;84.74
64200;BME280;50516;52.272;5.136;2022-12-17T00:49:58;102274.03;;;1.33;84.81
64200;BME280;50516;52.272;5.136;2022-12-17T00:52:42;102285.16;;;1.38;84.54
64200;BME280;50516;52.272;5.136;2022-12-17T00:55:26;102278.97;;;1.30;85.01
64200;BME280;50516;52.272;5.136;2022-12-17T00:58:10;102290.09;;;1.35;84.75
64200;BME280;50516;52.272;5.136;2022-12-17T01:00:58;102284.50;;;1.36;84.74
64200;BME280;50516;52.272;5.136;2022-12-17T01:03:42;102287.88;;;1.38;84.54
64200;BME280;50516;52.272;5.136;2022-12-17T01:06:26;102287.03;;;1.38;84.17
64200;BME280;50516;52.272;5.136;2022-12-17T01:09:10;102290.75;;;1.37;84.50
64200;BME280;50516;52.272;5.136;2022-12-17T01:11:54;102290.78;;;1.28;84.70
64200;BME280;50516;52.272;5.136;2022-12-17T01:14:38;102285.22;;;1.30;84.16
64200;BME280;50516;52.272;5.136;2022-12-17T01:17:22;102284.41;;;1.21;84.53
64200;BME280;50516;52.272;5.136;2022-12-17T01:20:06;102279.97;;;1.28;84.71
64200;BME280;50516;52.272;5.136;2022-12-17T01:22:50;102278.94;;;1.38;84.38
64200;BME280;50516;52.272;5.136;2022-12-17T01:25:34;102282.59;;;1.45;84.14
64200;BME280;50516;52.272;5.136;2022-12-17T01:28:24;102286.00;;;1.39;84.16
64200;BME280;50516;52.272;5.136;2022-12-17T01:31:09;102290.16;;;1.18;84.72
64200;BME280;50516;52.272;5.136;2022-12-17T01:33:53;102285.59;;;1.19;84.81
64200;BME280;50516;52.272;5.136;2022-12-17T01:36:37;102291.47;;;1.31;83.85
64200;BME280;50516;52.272;5.136;2022-12-17T01:39:21;102297.53;;;1.41;84.16
64200;BME280;50516;52.272;5.136;2022-12-17T01:42:11;102302.06;;;1.40;84.35
64200;BME280;50516;52.272;5.136;2022-12-17T01:44:56;102295.19;;;1.30;84.59
64200;BME280;50516;52.272;5.136;2022-12-17T01:47:47;102302.63;;;1.36;84.26
64200;BME280;50516;52.272;5.136;2022-12-17T01:50:38;102297.03;;;1.37;83.83
64200;BME280;50516;52.272;5.136;2022-12-17T01:53:27;102299.44;;;1.24;84.25
64200;BME280;50516;52.272;5.136;2022-12-17T01:56:12;102303.34;;;1.21;84.60
64200;BME280;50516;52.272;5.136;2022-12-17T01:58:57;102301.31;;;1.23;84.73
64200;BME280;50516;52.272;5.136;2022-12-17T02:01:41;102305.69;;;1.33;84.69
64200;BME280;50516;52.272;5.136;2022-12-17T02:04:26;102303.34;;;1.21;84.10
64200;BME280;50516;52.272;5.136;2022-12-17T02:07:22;102310.47;;;1.06;84.59
64200;BME280;50516;52.272;5.136;2022-12-17T02:10:30;102314.94;;;0.90;85.50
64200;BME280;50516;52.272;5.136;2022-12-17T02:13:20;102302.09;;;0.84;85.24
64200;BME280;50516;52.272;5.136;2022-12-17T02:16:30;102309.31;;;1.08;84.92
64200;BME280;50516;52.272;5.136;2022-12-17T02:22:19;102317.41;;;1.17;84.90
64200;BME280;50516;52.272;5.136;2022-12-17T02:25:23;102310.91;;;1.26;85.06
64200;BME280;50516;52.272;5.136;2022-12-17T02:28:09;102319.25;;;1.24;84.24
64200;BME280;50516;52.272;5.136;2022-12-17T02:30:54;102315.50;;;1.25;84.87
64200;BME280;50516;52.272;5.136;2022-12-17T02:33:39;102319.88;;;1.35;84.23
64200;BME280;50516;52.272;5.136;2022-12-17T02:36:23;102330.84;;;1.41;83.83
64200;BME280;50516;52.272;5.136;2022-12-17T02:39:08;102321.88;;;1.41;83.84
64200;BME280;50516;52.272;5.136;2022-12-17T02:41:55;102320.84;;;1.42;83.68
64200;BME280;50516;52.272;5.136;2022-12-17T02:44:40;102319.53;;;1.38;83.96
64200;BME280;50516;52.272;5.136;2022-12-17T02:47:26;102322.53;;;1.43;84.03
64200;BME280;50516;52.272;5.136;2022-12-17T02:50:11;102329.50;;;1.29;84.01
64200;BME280;50516;52.272;5.136;2022-12-17T02:52:58;102343.44;;;1.09;84.55
64200;BME280;50516;52.272;5.136;2022-12-17T02:55:42;102329.78;;;0.95;85.10
64200;BME280;50516;52.272;5.136;2022-12-17T02:58:26;102324.72;;;0.91;85.30
64200;BME280;50516;52.272;5.136;2022-12-17T03:01:10;102331.31;;;0.97;84.93
64200;BME280;50516;52.272;5.136;2022-12-17T03:03:54;102338.91;;;0.94;84.70
64200;BME280;50516;52.272;5.136;2022-12-17T03:06:41;102341.25;;;0.97;85.25
64200;BME280;50516;52.272;5.136;2022-12-17T03:09:25;102349.19;;;1.06;85.07
64200;BME280;50516;52.272;5.136;2022-12-17T03:12:09;102354.78;;;0.97;85.18
64200;BME280;50516;52.272;5.136;2022-12-17T03:14:53;102345.00;;;0.96;84.96
64200;BME280;50516;52.272;5.136;2022-12-17T03:17:37;102345.50;;;0.99;85.03
64200;BME280;50516;52.272;5.136;2022-12-17T03:20:21;102349.72;;;1.10;84.82
64200;BME280;50516;52.272;5.136;2022-12-17T03:23:07;102348.34;;;1.06;84.90
64200;BME280;50516;52.272;5.136;2022-12-17T03:25:52;102343.13;;;0.96;84.83
64200;BME280;50516;52.272;5.136;2022-12-17T03:28:36;102348.88;;;0.93;85.04
64200;BME280;50516;52.272;5.136;2022-12-17T03:31:20;102340.59;;;0.95;85.18
64200;BME280;50516;52.272;5.136;2022-12-17T03:34:05;102338.53;;;1.05;84.86
64200;BME280;50516;52.272;5.136;2022-12-17T03:36:49;102329.44;;;0.89;85.35
64200;BME280;50516;52.272;5.136;2022-12-17T03:39:33;102348.06;;;0.84;85.48
64200;BME280;50516;52.272;5.136;2022-12-17T03:42:17;102338.91;;;1.02;85.07
64200;BME280;50516;52.272;5.136;2022-12-17T03:45:01;102351.09;;;0.81;84.98
64200;BME280;50516;52.272;5.136;2022-12-17T03:47:45;102358.53;;;0.96;85.17
64200;BME280;50516;52.272;5.136;2022-12-17T03:50:29;102363.75;;;1.05;84.88
64200;BME280;50516;52.272;5.136;2022-12-17T03:53:13;102349.38;;;0.97;85.15
64200;BME280;50516;52.272;5.136;2022-12-17T03:56:13;102361.56;;;1.01;84.92
64200;BME280;50516;52.272;5.136;2022-12-17T03:58:57;102358.50;;;1.04;85.42
64200;BME280;50516;52.272;5.136;2022-12-17T04:01:41;102351.88;;;1.15;85.11
64200;BME280;50516;52.272;5.136;2022-12-17T04:04:36;102354.06;;;1.19;84.39
64200;BME280;50516;52.272;5.136;2022-12-17T04:07:20;102361.50;;;1.17;84.21
64200;BME280;50516;52.272;5.136;2022-12-17T04:10:04;102356.94;;;1.18;84.90
64200;BME280;50516;52.272;5.136;2022-12-17T04:12:51;102352.75;;;1.15;84.43
64200;BME280;50516;52.272;5.136;2022-12-17T04:15:36;102357.13;;;1.08;84.89
64200;BME280;50516;52.272;5.136;2022-12-17T04:18:20;102367.63;;;0.95;84.56
64200;BME280;50516;52.272;5.136;2022-12-17T04:21:04;102370.00;;;1.06;85.17
64200;BME280;50516;52.272;5.136;2022-12-17T04:23:48;102375.56;;;1.13;84.74
64200;BME280;50516;52.272;5.136;2022-12-17T04:26:32;102374.88;;;1.11;84.85
64200;BME280;50516;52.272;5.136;2022-12-17T04:29:16;102376.22;;;1.06;84.53
64200;BME280;50516;52.272;5.136;2022-12-17T04:32:03;102373.88;;;1.12;84.28
64200;BME280;50516;52.272;5.136;2022-12-17T04:34:47;102387.22;;;1.21;83.79
64200;BME280;50516;52.272;5.136;2022-12-17T04:37:31;102397.06;;;0.89;84.63
64200;BME280;50516;52.272;5.136;2022-12-17T04:40:15;102400.75;;;0.97;85.02
64200;BME280;50516;52.272;5.136;2022-12-17T04:43:10;102398.22;;;1.03;84.56
64200;BME280;50516;52.272;5.136;2022-12-17T04:45:54;102390.78;;;1.05;84.37
64200;BME280;50516;52.272;5.136;2022-12-17T04:48:39;102380.81;;;0.98;85.14
64200;BME280;50516;52.272;5.136;2022-12-17T04:51:24;102377.47;;;0.87;85.14
64200;BME280;50516;52.272;5.136;2022-12-17T04:54:08;102376.44;;;0.80;85.04
64200;BME280;50516;52.272;5.136;2022-12-17T04:56:52;102374.22;;;0.92;84.78
64200;BME280;50516;52.272;5.136;2022-12-17T04:59:35;102381.16;;;1.03;84.40
64200;BME280;50516;52.272;5.136;2022-12-17T05:02:20;102381.50;;;0.91;84.56
64200;BME280;50516;52.272;5.136;2022-12-17T05:05:04;102394.50;;;1.04;83.90
64200;BME280;50516;52.272;5.136;2022-12-17T05:07:55;102387.22;;;1.05;84.35
64200;BME280;50516;52.272;5.136;2022-12-17T05:10:40;102386.91;;;1.00;84.27
64200;BME280;50516;52.272;5.136;2022-12-17T05:13:24;102394.00;;;1.01;84.29
64200;BME280;50516;52.272;5.136;2022-12-17T05:16:08;102393.50;;;1.05;84.22
64200;BME280;50516;52.272;5.136;2022-12-17T05:18:56;102386.41;;;0.96;84.60
64200;BME280;50516;52.272;5.136;2022-12-17T05:21:40;102397.53;;;1.09;84.27
64200;BME280;50516;52.272;5.136;2022-12-17T05:24:24;102392.47;;;1.23;83.79
64200;BME280;50516;52.272;5.136;2022-12-17T05:27:08;102388.72;;;1.24;83.05
64200;BME280;50516;52.272;5.136;2022-12-17T05:29:52;102390.59;;;1.23;83.73
64200;BME280;50516;52.272;5.136;2022-12-17T05:32:35;102387.88;;;1.23;83.27
64200;BME280;50516;52.272;5.136;2022-12-17T05:35:20;102379.31;;;1.12;83.29
64200;BME280;50516;52.272;5.136;2022-12-17T05:38:09;102373.03;;;1.03;84.25
64200;BME280;50516;52.272;5.136;2022-12-17T05:40:58;102366.97;;;0.93;83.84
64200;BME280;50516;52.272;5.136;2022-12-17T05:43:42;102355.47;;;1.07;83.57
64200;BME280;50516;52.272;5.136;2022-12-17T05:46:27;102381.16;;;0.86;84.39
64200;BME280;50516;52.272;5.136;2022-12-17T05:49:11;102371.88;;;0.81;84.36
64200;BME280;50516;52.272;5.136;2022-12-17T05:51:56;102386.06;;;0.91;84.69
64200;BME280;50516;52.272;5.136;2022-12-17T05:54:39;102392.00;;;0.86;84.28
64200;BME280;50516;52.272;5.136;2022-12-17T05:57:23;102400.09;;;0.70;84.38
64200;BME280;50516;52.272;5.136;2022-12-17T06:00:08;102401.59;;;0.64;85.15
64200;BME280;50516;52.272;5.136;2022-12-17T06:03:02;102410.59;;;0.73;85.00
64200;BME280;50516;52.272;5.136;2022-12-17T06:05:47;102407.88;;;0.81;84.39
64200;BME280;50516;52.272;5.136;2022-12-17T06:08:30;102410.91;;;0.78;84.95
64200;BME280;50516;52.272;5.136;2022-12-17T06:11:14;102419.03;;;0.86;84.32
64200;BME280;50516;52.272;5.136;2022-12-17T06:13:58;102411.75;;;0.79;84.32
64200;BME280;50516;52.272;5.136;2022-12-17T06:16:42;102409.91;;;0.79;84.64
64200;BME280;50516;52.272;5.136;2022-12-17T06:19:26;102414.63;;;0.77;84.97
64200;BME280;50516;52.272;5.136;2022-12-17T06:22:10;102411.56;;;0.47;85.03
64200;BME280;50516;52.272;5.136;2022-12-17T06:24:54;102405.69;;;0.60;85.08
64200;BME280;50516;52.272;5.136;2022-12-17T06:27:38;102412.25;;;0.66;84.31
64200;BME280;50516;52.272;5.136;2022-12-17T06:30:22;102414.97;;;0.74;84.81
64200;BME280;50516;52.272;5.136;2022-12-17T06:33:08;102419.03;;;0.86;84.86
64200;BME280;50516;52.272;5.136;2022-12-17T06:35:54;102426.09;;;0.71;84.41
64200;BME280;50516;52.272;5.136;2022-12-17T06:38:39;102425.78;;;0.82;84.28
64200;BME280;50516;52.272;5.136;2022-12-17T06:41:23;102431.22;;;0.90;84.28
64200;BME280;50516;52.272;5.136;2022-12-17T06:44:07;102436.94;;;0.71;84.64
64200;BME280;50516;52.272;5.136;2022-12-17T06:46:51;102430.69;;;0.70;84.91
64200;BME280;50516;52.272;5.136;2022-12-17T06:49:34;102435.91;;;0.64;84.38
64200;BME280;50516;52.272;5.136;2022-12-17T06:52:29;102424.75;;;0.50;85.19
64200;BME280;50516;52.272;5.136;2022-12-17T06:55:13;102438.63;;;0.56;85.30
64200;BME280;50516;52.272;5.136;2022-12-17T06:57:57;102453.84;;;0.81;84.88
64200;BME280;50516;52.272;5.136;2022-12-17T07:00:43;102460.59;;;0.85;84.34
64200;BME280;50516;52.272;5.136;2022-12-17T07:03:27;102459.09;;;0.91;84.38
64200;BME280;50516;52.272;5.136;2022-12-17T07:06:11;102464.00;;;0.96;84.24
64200;BME280;50516;52.272;5.136;2022-12-17T07:08:55;102462.81;;;0.98;83.96
64200;BME280;50516;52.272;5.136;2022-12-17T07:11:39;102458.09;;;1.08;83.77
64200;BME280;50516;52.272;5.136;2022-12-17T07:14:23;102454.69;;;0.98;82.88
64200;BME280;50516;52.272;5.136;2022-12-17T07:17:07;102448.78;;;0.95;83.97
64200;BME280;50516;52.272;5.136;2022-12-17T07:19:51;102447.78;;;1.04;84.17
64200;BME280;50516;52.272;5.136;2022-12-17T07:22:36;102460.97;;;0.90;83.36
64200;BME280;50516;52.272;5.136;2022-12-17T07:25:19;102460.59;;;0.77;84.30
64200;BME280;50516;52.272;5.136;2022-12-17T07:28:03;102467.03;;;1.01;84.42
64200;BME280;50516;52.272;5.136;2022-12-17T07:30:47;102467.72;;;1.11;83.67
64200;BME280;50516;52.272;5.136;2022-12-17T07:33:31;102464.66;;;0.89;84.55
64200;BME280;50516;52.272;5.136;2022-12-17T07:36:19;102458.59;;;0.96;84.30
64200;BME280;50516;52.272;5.136;2022-12-17T07:39:03;102455.56;;;0.90;84.01
64200;BME280;50516;52.272;5.136;2022-12-17T07:41:47;102459.94;;;0.91;83.95
64200;BME280;50516;52.272;5.136;2022-12-17T07:44:31;102461.81;;;0.99;84.17
64200;BME280;50516;52.272;5.136;2022-12-17T07:47:15;102467.38;;;0.98;84.04
64200;BME280;50516;52.272;5.136;2022-12-17T07:49:59;102490.19;;;0.87;84.22
64200;BME280;50516;52.272;5.136;2022-12-17T07:52:43;102497.59;;;0.77;84.52
64200;BME280;50516;52.272;5.136;2022-12-17T07:55:27;102492.69;;;0.64;84.34
64200;BME280;50516;52.272;5.136;2022-12-17T07:58:11;102499.78;;;0.65;84.52
64200;BME280;50516;52.272;5.136;2022-12-17T08:00:58;102500.81;;;0.80;84.37
64200;BME280;50516;52.272;5.136;2022-12-17T08:03:44;102499.50;;;0.84;83.99
64200;BME280;50516;52.272;5.136;2022-12-17T08:06:28;102503.34;;;0.82;84.35
64200;BME280;50516;52.272;5.136;2022-12-17T08:09:12;102506.94;;;0.90;83.68
64200;BME280;50516;52.272;5.136;2022-12-17T08:11:56;102522.84;;;1.02;83.86
64200;BME280;50516;52.272;5.136;2022-12-17T08:14:40;102521.81;;;1.03;83.50
64200;BME280;50516;52.272;5.136;2022-12-17T08:17:24;102516.56;;;0.93;83.75
64200;BME280;50516;52.272;5.136;2022-12-17T08:20:08;102517.75;;;0.90;83.93
64200;BME280;50516;52.272;5.136;2022-12-17T08:22:59;102527.22;;;0.95;84.33
64200;BME280;50516;52.272;5.136;2022-12-17T08:25:43;102518.44;;;0.93;83.67
64200;BME280;50516;52.272;5.136;2022-12-17T08:28:27;102521.16;;;1.09;84.28
64200;BME280;50516;52.272;5.136;2022-12-17T08:31:11;102523.69;;;1.19;83.17
64200;BME280;50516;52.272;5.136;2022-12-17T08:33:55;102526.06;;;1.05;83.12
64200;BME280;50516;52.272;5.136;2022-12-17T08:36:39;102522.69;;;1.20;83.68
64200;BME280;50516;52.272;5.136;2022-12-17T08:39:23;102525.56;;;1.10;82.77
64200;BME280;50516;52.272;5.136;2022-12-17T08:42:07;102527.72;;;1.06;83.19
64200;BME280;50516;52.272;5.136;2022-12-17T08:44:51;102529.09;;;1.19;83.27
64200;BME280;50516;52.272;5.136;2022-12-17T08:47:35;102532.50;;;1.45;82.73
64200;BME280;50516;52.272;5.136;2022-12-17T08:50:19;102533.31;;;1.46;82.58
64200;BME280;50516;52.272;5.136;2022-12-17T08:53:03;102535.19;;;1.45;82.38
64200;BME280;50516;52.272;5.136;2022-12-17T08:55:47;102529.25;;;1.42;82.04
64200;BME280;50516;52.272;5.136;2022-12-17T08:58:31;102538.75;;;1.30;82.69
64200;BME280;50516;52.272;5.136;2022-12-17T09:01:15;102540.59;;;1.21;82.60
64200;BME280;50516;52.272;5.136;2022-12-17T09:03:59;102535.88;;;1.23;82.91
64200;BME280;50516;52.272;5.136;2022-12-17T09:06:43;102552.94;;;1.40;83.06
64200;BME280;50516;52.272;5.136;2022-12-17T09:09:27;102550.56;;;1.28;82.37
64200;BME280;50516;52.272;5.136;2022-12-17T09:12:11;102542.63;;;1.27;82.88
64200;BME280;50516;52.272;5.136;2022-12-17T09:14:55;102542.13;;;1.15;83.20
64200;BME280;50516;52.272;5.136;2022-12-17T09:17:39;102545.50;;;1.34;82.35
64200;BME280;50516;52.272;5.136;2022-12-17T09:20:23;102537.22;;;1.19;81.91
64200;BME280;50516;52.272;5.136;2022-12-17T09:23:07;102537.38;;;1.17;82.53
64200;BME280;50516;52.272;5.136;2022-12-17T09:25:52;102552.28;;;1.21;82.43
64200;BME280;50516;52.272;5.136;2022-12-17T09:28:36;102543.81;;;1.33;81.94
64200;BME280;50516;52.272;5.136;2022-12-17T09:31:20;102545.00;;;1.46;81.00
64200;BME280;50516;52.272;5.136;2022-12-17T09:34:04;102553.94;;;1.39;80.96
64200;BME280;50516;52.272;5.136;2022-12-17T09:36:48;102559.56;;;1.45;81.34
64200;BME280;50516;52.272;5.136;2022-12-17T09:39:32;102561.91;;;1.40;80.86
64200;BME280;50516;52.272;5.136;2022-12-17T09:42:24;102580.19;;;1.38;81.03
64200;BME280;50516;52.272;5.136;2022-12-17T09:45:19;102573.22;;;1.27;81.65
64200;BME280;50516;52.272;5.136;2022-12-17T09:48:20;102573.59;;;1.41;81.22
64200;BME280;50516;52.272;5.136;2022-12-17T09:51:22;102585.94;;;1.52;81.08
64200;BME280;50516;52.272;5.136;2022-12-17T09:54:24;102580.72;;;1.58;80.44
64200;BME280;50516;52.272;5.136;2022-12-17T09:57:13;102579.00;;;1.41;80.86
64200;BME280;50516;52.272;5.136;2022-12-17T10:00:02;102580.88;;;1.49;80.76
64200;BME280;50516;52.272;5.136;2022-12-17T10:02:46;102579.00;;;1.49;81.32
64200;BME280;50516;52.272;5.136;2022-12-17T10:05:31;102577.63;;;1.53;80.21
64200;BME280;50516;52.272;5.136;2022-12-17T10:08:18;102573.25;;;1.52;80.49
64200;BME280;50516;52.272;5.136;2022-12-17T10:11:18;102573.59;;;1.66;80.26
64200;BME280;50516;52.272;5.136;2022-12-17T10:14:03;102574.41;;;1.74;80.67
64200;BME280;50516;52.272;5.136;2022-12-17T10:16:54;102567.66;;;1.62;80.15
64200;BME280;50516;52.272;5.136;2022-12-17T10:19:40;102571.38;;;1.69;80.07
64200;BME280;50516;52.272;5.136;2022-12-17T10:22:25;102577.66;;;1.78;79.78
64200;BME280;50516;52.272;5.136;2022-12-17T10:25:17;102584.03;;;1.93;80.16
64200;BME280;50516;52.272;5.136;2022-12-17T10:28:10;102589.09;;;2.05;79.17
64200;BME280;50516;52.272;5.136;2022-12-17T10:30:54;102580.97;;;2.05;79.19
64200;BME280;50516;52.272;5.136;2022-12-17T10:33:39;102586.56;;;2.03;78.69
64200;BME280;50516;52.272;5.136;2022-12-17T10:36:25;102591.81;;;2.05;79.07
64200;BME280;50516;52.272;5.136;2022-12-17T10:39:15;102597.06;;;2.06;79.78
64200;BME280;50516;52.272;5.136;2022-12-17T10:42:00;102582.19;;;2.02;79.34
64200;BME280;50516;52.272;5.136;2022-12-17T10:44:45;102588.81;;;1.83;78.83
64200;BME280;50516;52.272;5.136;2022-12-17T10:47:29;102571.50;;;2.00;79.33
64200;BME280;50516;52.272;5.136;2022-12-17T10:50:16;102587.75;;;2.00;79.38
64200;BME280;50516;52.272;5.136;2022-12-17T10:53:02;102596.72;;;2.09;79.10
64200;BME280;50516;52.272;5.136;2022-12-17T10:55:56;102612.66;;;1.96;79.28
64200;BME280;50516;52.272;5.136;2022-12-17T10:58:45;102607.41;;;1.94;79.63
64200;BME280;50516;52.272;5.136;2022-12-17T11:01:30;102617.56;;;1.84;79.79
64200;BME280;50516;52.272;5.136;2022-12-17T11:04:25;102605.72;;;1.93;79.46
64200;BME280;50516;52.272;5.136;2022-12-17T11:07:30;102601.81;;;1.96;79.22
64200;BME280;50516;52.272;5.136;2022-12-17T11:10:38;102616.53;;;2.01;79.52
64200;BME280;50516;52.272;5.136;2022-12-17T11:13:34;102611.44;;;2.07;79.40
64200;BME280;50516;52.272;5.136;2022-12-17T11:16:25;102617.06;;;2.05;79.25
64200;BME280;50516;52.272;5.136;2022-12-17T11:22:02;102610.91;;;2.19;79.27
64200;BME280;50516;52.272;5.136;2022-12-17T11:25:12;102606.00;;;2.23;79.22
64200;BME280;50516;52.272;5.136;2022-12-17T11:28:12;102610.72;;;2.29;79.31
64200;BME280;50516;52.272;5.136;2022-12-17T11:31:21;102613.81;;;2.01;79.62
64200;BME280;50516;52.272;5.136;2022-12-17T11:37:59;102601.97;;;2.03;79.42
64200;BME280;50516;52.272;5.136;2022-12-17T11:40:38;102606.91;;;1.91;80.01
64200;BME280;50516;52.272;5.136;2022-12-17T11:43:37;102602.97;;;2.01;79.12
64200;BME280;50516;52.272;5.136;2022-12-17T11:58:48;102579.66;;;1.84;79.10
64200;BME280;50516;52.272;5.136;2022-12-17T12:01:42;102569.63;;;2.09;78.62
64200;BME280;50516;52.272;5.136;2022-12-17T12:07:52;102578.44;;;2.03;79.38
64200;BME280;50516;52.272;5.136;2022-12-17T12:26:10;102573.09;;;2.34;77.88
64200;BME280;50516;52.272;5.136;2022-12-17T12:32:06;102574.50;;;2.22;78.07
64200;BME280;50516;52.272;5.136;2022-12-17T12:34:55;102574.38;;;2.07;78.25
64200;BME280;50516;52.272;5.136;2022-12-17T12:37:40;102573.69;;;1.97;78.38
64200;BME280;50516;52.272;5.136;2022-12-17T12:40:50;102574.53;;;2.06;78.83
64200;BME280;50516;52.272;5.136;2022-12-17T12:43:40;102570.81;;;1.98;78.04
64200;BME280;50516;52.272;5.136;2022-12-17T12:46:32;102570.66;;;1.92;78.08
64200;BME280;50516;52.272;5.136;2022-12-17T12:49:36;102568.47;;;1.87;78.63
64200;BME280;50516;52.272;5.136;2022-12-17T12:52:25;102580.69;;;1.83;79.09
64200;BME280;50516;52.272;5.136;2022-12-17T12:55:11;102584.34;;;1.98;78.89
64200;BME280;50516;52.272;5.136;2022-12-17T13:06:51;102578.81;;;1.75;79.21
64200;BME280;50516;52.272;5.136;2022-12-17T13:09:28;102574.25;;;1.76;78.95
64200;BME280;50516;52.272;5.136;2022-12-17T13:17:19;102563.22;;;1.94;78.25
64200;BME280;50516;52.272;5.136;2022-12-17T13:24:51;102562.41;;;1.77;78.57
64200;BME280;50516;52.272;5.136;2022-12-17T13:27:37;102561.72;;;1.75;78.19
64200;BME280;50516;52.272;5.136;2022-12-17T13:38:25;102562.91;;;1.64;79.42
64200;BME280;50516;52.272;5.136;2022-12-17T13:41:25;102562.56;;;1.75;78.83
64200;BME280;50516;52.272;5.136;2022-12-17T13:43:54;102553.63;;;1.67;79.16
64200;BME280;50516;52.272;5.136;2022-12-17T13:46:28;102566.81;;;1.78;78.76
64200;BME280;50516;52.272;5.136;2022-12-17T13:48:56;102574.06;;;1.77;78.52
64200;BME280;50516;52.272;5.136;2022-12-17T13:51:23;102574.06;;;1.69;78.95
64200;BME280;50516;52.272;5.136;2022-12-17T13:53:52;102563.78;;;1.48;79.67
64200;BME280;50516;52.272;5.136;2022-12-17T13:56:47;102560.06;;;1.49;79.35
64200;BME280;50516;52.272;5.136;2022-12-17T13:59:21;102562.94;;;1.56;79.46
64200;BME280;50516;52.272;5.136;2022-12-17T14:01:50;102574.59;;;1.48;79.45
64200;BME280;50516;52.272;5.136;2022-12-17T14:04:24;102577.13;;;1.41;79.33
64200;BME280;50516;52.272;5.136;2022-12-17T14:06:51;102577.31;;;1.40;79.58
64200;BME280;50516;52.272;5.136;2022-12-17T14:09:21;102585.75;;;1.45;79.66
64200;BME280;50516;52.272;5.136;2022-12-17T14:11:48;102585.09;;;1.35;79.28
64200;BME280;50516;52.272;5.136;2022-12-17T14:15:00;102592.53;;;1.33;80.00
64200;BME280;50516;52.272;5.136;2022-12-17T14:17:37;102581.16;;;1.13;80.45
64200;BME280;50516;52.272;5.136;2022-12-17T14:20:15;102586.41;;;1.22;80.67
64200;BME280;50516;52.272;5.136;2022-12-17T14:22:45;102585.44;;;1.32;79.83
64200;BME280;50516;52.272;5.136;2022-12-17T14:25:16;102591.16;;;1.20;80.71
64200;BME280;50516;52.272;5.136;2022-12-17T14:27:58;102579.66;;;1.02;80.35
64200;BME280;50516;52.272;5.136;2022-12-17T14:30:35;102587.09;;;1.16;80.65
64200;BME280;50516;52.272;5.136;2022-12-17T14:33:02;102593.38;;;1.17;80.28
64200;BME280;50516;52.272;5.136;2022-12-17T14:35:40;102587.63;;;1.20;80.14
64200;BME280;50516;52.272;5.136;2022-12-17T14:38:16;102589.13;;;1.22;80.19
64200;BME280;50516;52.272;5.136;2022-12-17T14:40:41;102597.56;;;1.19;80.29
64200;BME280;50516;52.272;5.136;2022-12-17T14:43:07;102589.28;;;1.21;80.22
64200;BME280;50516;52.272;5.136;2022-12-17T14:45:32;102591.84;;;1.31;78.95
64200;BME280;50516;52.272;5.136;2022-12-17T14:48:17;102593.88;;;1.20;79.63
64200;BME280;50516;52.272;5.136;2022-12-17T14:50:53;102606.06;;;1.24;79.67
64200;BME280;50516;52.272;5.136;2022-12-17T14:53:26;102606.25;;;1.31;79.48
64200;BME280;50516;52.272;5.136;2022-12-17T14:55:56;102604.38;;;1.23;79.62
64200;BME280;50516;52.272;5.136;2022-12-17T14:58:24;102608.72;;;1.16;79.55
64200;BME280;50516;52.272;5.136;2022-12-17T15:00:59;102601.66;;;1.15;79.38
64200;BME280;50516;52.272;5.136;2022-12-17T15:03:31;102607.38;;;1.12;79.62
64200;BME280;50516;52.272;5.136;2022-12-17T15:06:00;102606.31;;;0.88;79.82
64200;BME280;50516;52.272;5.136;2022-12-17T15:08:30;102604.59;;;0.79;80.63
64200;BME280;50516;52.272;5.136;2022-12-17T15:10:59;102597.50;;;0.78;80.72
64200;BME280;50516;52.272;5.136;2022-12-17T15:13:24;102603.22;;;0.75;80.86
64200;BME280;50516;52.272;5.136;2022-12-17T15:15:51;102614.38;;;0.80;80.36
64200;BME280;50516;52.272;5.136;2022-12-17T15:18:16;102615.06;;;0.82;80.28
64200;BME280;50516;52.272;5.136;2022-12-17T15:20:41;102621.44;;;0.65;80.89
64200;BME280;50516;52.272;5.136;2022-12-17T15:23:17;102623.41;;;0.54;81.00
64200;BME280;50516;52.272;5.136;2022-12-17T15:25:47;102628.66;;;0.56;81.10
64200;BME280;50516;52.272;5.136;2022-12-17T15:28:13;102635.03;;;0.47;81.27
64200;BME280;50516;52.272;5.136;2022-12-17T15:30:39;102631.84;;;0.51;80.68
64200;BME280;50516;52.272;5.136;2022-12-17T15:33:06;102639.63;;;0.54;81.09
64200;BME280;50516;52.272;5.136;2022-12-17T15:35:32;102648.94;;;0.52;80.84
64200;BME280;50516;52.272;5.136;2022-12-17T15:37:57;102641.50;;;0.54;80.61
64200;BME280;50516;52.272;5.136;2022-12-17T15:40:23;102659.78;;;0.60;80.25